SANTA FE DAM CA US current weather conditions

sailwx.info

Wind from 220 at 2 knots gusting 7

Air temperature 15.0° C
Dewpoint 0.8° C

Last reported at 2015-Mar-05 02:57 UTC.
Time now 2015-Mar-05 04:08 UTC

Location: N 34°08' W 117°57'.
View on Google Maps.

See reports from other nearby stations

  
Tides and Currents Weather Stations Pressure Air Temp Water Temp Dewpoint Dewpoint Depression Visibility Wind Speed Wind Dir Waves Ship Positions
date/time (UTC)wind fromknots sea level pressurealtimeterstation pressurevisibilityair tempwater tempwave heightnotes
2015-Mar-05 02:57 220 2 gusting 7 15.0
2015-Mar-05 01:57 240 5 gusting 11 18.9
2015-Mar-05 00:57 247 5 gusting 11 21.7
2015-Mar-04 23:57 216 6 gusting 11 24.4
2015-Mar-04 22:57 304 4 gusting 12 25.6
2015-Mar-04 21:57 095 4 gusting 11 24.4
2015-Mar-04 20:57 229 5 gusting 13 24.4
2015-Mar-04 19:57 232 5 gusting 10 22.8
2015-Mar-04 18:57 191 4 gusting 9 21.7
2015-Mar-04 17:57 204 4 gusting 8 20.0
2015-Mar-04 16:57 095 1 gusting 5 19.4
2015-Mar-04 15:57 034 2 gusting 9 15.6
2015-Mar-04 14:57 033 5 gusting 9 11.7
2015-Mar-04 13:57 060 3 gusting 8 10.6
2015-Mar-04 12:57 063 3 gusting 11 10.6
2015-Mar-04 11:57 030 5 gusting 11 10.6
2015-Mar-04 10:57 042 6 gusting 13 11.7
2015-Mar-04 09:57 022 5 gusting 10 10.6
2015-Mar-04 08:57 028 3 gusting 10 11.1
2015-Mar-04 07:57 030 2 gusting 7 11.1
2015-Mar-04 06:57 047 2 gusting 7 10.6
2015-Mar-04 05:57 029 2 gusting 7 11.1
2015-Mar-04 04:57 035 1 gusting 6 11.1
2015-Mar-04 03:57 348 2 gusting 5 11.7
2015-Mar-04 02:57 247 4 gusting 8 13.9
2015-Mar-04 01:57 248 5 gusting 13 15.6
2015-Mar-04 00:57 240 7 gusting 15 17.2
2015-Mar-03 23:57 234 6 gusting 16 20.0
2015-Mar-03 22:57 283 4 gusting 11 21.1
2015-Mar-03 21:57 265 4 gusting 11 20.6
2015-Mar-03 20:57 316 2 gusting 10 21.7
2015-Mar-03 19:57 182 4 gusting 9 20.0
2015-Mar-03 18:57 193 2 gusting 7 20.0
2015-Mar-03 17:57 224 1 gusting 6 18.9
2015-Mar-03 16:57 035 3 gusting 12 15.0
2015-Mar-03 15:57 044 6 gusting 13 11.1
2015-Mar-03 14:57 034 5 gusting 13 9.4
2015-Mar-03 13:57 040 4 gusting 11 8.9
2015-Mar-03 12:57 038 5 gusting 13 9.4
2015-Mar-03 11:57 038 6 gusting 13 9.4
2015-Mar-03 10:57 043 6 gusting 12 8.9
2015-Mar-03 09:57 049 6 gusting 13 10.0
2015-Mar-03 08:57 043 6 gusting 13 9.4
2015-Mar-03 07:57 030 6 gusting 12 10.6
2015-Mar-03 06:57 045 5 gusting 9 10.6
2015-Mar-03 05:57 033 4 gusting 9 10.0
2015-Mar-03 04:57 042 3 gusting 10 10.6